sensor_id;sensor_type;location;lat;lon;timestamp;pressure;altitude;pressure_sealevel;temperature;humidity
26087;BME280;13851;43.434;28.338;2023-04-21T00:00:14;99097.16;;;10.64;100.00
26087;BME280;13851;43.434;28.338;2023-04-21T00:02:40;99324.66;;;12.03;100.00
26087;BME280;13851;43.434;28.338;2023-04-21T00:05:06;99324.66;;;12.03;100.00
26087;BME280;13851;43.434;28.338;2023-04-21T00:07:36;99314.94;;;12.00;100.00
26087;BME280;13851;43.434;28.338;2023-04-21T00:10:12;99264.97;;;11.70;100.00
26087;BME280;13851;43.434;28.338;2023-04-21T00:12:37;99268.75;;;11.69;100.00
26087;BME280;13851;43.434;28.338;2023-04-21T00:15:03;99181.53;;;10.75;100.00
26087;BME280;13851;43.434;28.338;2023-04-21T00:17:30;99317.94;;;11.70;100.00
26087;BME280;13851;43.434;28.338;2023-04-21T00:19:55;99157.91;;;10.74;100.00
26087;BME280;13851;43.434;28.338;2023-04-21T00:22:21;98971.69;;;9.49;100.00
26087;BME280;13851;43.434;28.338;2023-04-21T00:24:47;99347.00;;;11.58;100.00
26087;BME280;13851;43.434;28.338;2023-04-21T00:27:12;99326.13;;;11.64;100.00
26087;BME280;13851;43.434;28.338;2023-04-21T00:29:39;98989.66;;;9.58;100.00
26087;BME280;13851;43.434;28.338;2023-04-21T00:32:06;99321.53;;;11.71;100.00
26087;BME280;13851;43.434;28.338;2023-04-21T00:34:35;99225.00;;;11.13;100.00
26087;BME280;13851;43.434;28.338;2023-04-21T00:37:01;99292.56;;;11.27;100.00
26087;BME280;13851;43.434;28.338;2023-04-21T00:39:27;99314.69;;;11.26;100.00
26087;BME280;13851;43.434;28.338;2023-04-21T00:41:52;98937.41;;;9.25;100.00
26087;BME280;13851;43.434;28.338;2023-04-21T00:44:18;99346.50;;;11.48;100.00
26087;BME280;13851;43.434;28.338;2023-04-21T00:46:44;99297.16;;;11.20;100.00
26087;BME280;13851;43.434;28.338;2023-04-21T00:49:10;98839.44;;;8.51;100.00
26087;BME280;13851;43.434;28.338;2023-04-21T00:51:37;99065.47;;;9.49;100.00
26087;BME280;13851;43.434;28.338;2023-04-21T00:54:04;99315.31;;;11.21;100.00
26087;BME280;13851;43.434;28.338;2023-04-21T00:56:32;99281.50;;;11.14;100.00
26087;BME280;13851;43.434;28.338;2023-04-21T00:58:59;98890.53;;;8.78;100.00
26087;BME280;13851;43.434;28.338;2023-04-21T01:01:27;99302.13;;;11.10;100.00
26087;BME280;13851;43.434;28.338;2023-04-21T01:03:59;99356.53;;;11.06;100.00
26087;BME280;13851;43.434;28.338;2023-04-21T01:06:29;99292.19;;;11.02;100.00
26087;BME280;13851;43.434;28.338;2023-04-21T01:08:56;99352.00;;;10.99;100.00
26087;BME280;13851;43.434;28.338;2023-04-21T01:11:23;99137.84;;;10.18;100.00
26087;BME280;13851;43.434;28.338;2023-04-21T01:13:51;99345.22;;;11.16;100.00
26087;BME280;13851;43.434;28.338;2023-04-21T01:16:19;99296.00;;;11.08;100.00
26087;BME280;13851;43.434;28.338;2023-04-21T01:18:45;99205.84;;;10.57;100.00
26087;BME280;13851;43.434;28.338;2023-04-21T01:21:11;98848.66;;;8.50;100.00
26087;BME280;13851;43.434;28.338;2023-04-21T01:23:38;99272.19;;;11.08;100.00
26087;BME280;13851;43.434;28.338;2023-04-21T01:26:04;99291.28;;;11.23;100.00
26087;BME280;13851;43.434;28.338;2023-04-21T01:28:30;99282.47;;;11.34;100.00
26087;BME280;13851;43.434;28.338;2023-04-21T01:30:56;99216.84;;;10.91;100.00
26087;BME280;13851;43.434;28.338;2023-04-21T01:33:22;99288.88;;;11.41;100.00
26087;BME280;13851;43.434;28.338;2023-04-21T01:35:47;98986.31;;;9.62;100.00
26087;BME280;13851;43.434;28.338;2023-04-21T01:38:13;99293.31;;;11.42;100.00
26087;BME280;13851;43.434;28.338;2023-04-21T01:40:44;99165.63;;;10.64;100.00
26087;BME280;13851;43.434;28.338;2023-04-21T01:43:11;99293.47;;;11.41;100.00
26087;BME280;13851;43.434;28.338;2023-04-21T01:45:37;99054.31;;;9.94;100.00
26087;BME280;13851;43.434;28.338;2023-04-21T01:48:02;99275.22;;;11.20;100.00
26087;BME280;13851;43.434;28.338;2023-04-21T01:50:28;99273.97;;;11.23;100.00
26087;BME280;13851;43.434;28.338;2023-04-21T01:52:54;99275.06;;;11.28;100.00
26087;BME280;13851;43.434;28.338;2023-04-21T01:55:19;99280.81;;;11.40;100.00
26087;BME280;13851;43.434;28.338;2023-04-21T01:57:45;99198.56;;;11.05;100.00
26087;BME280;13851;43.434;28.338;2023-04-21T02:00:11;99276.84;;;11.42;100.00
26087;BME280;13851;43.434;28.338;2023-04-21T02:02:36;99143.69;;;10.57;100.00
26087;BME280;13851;43.434;28.338;2023-04-21T02:05:02;99265.63;;;11.37;100.00
26087;BME280;13851;43.434;28.338;2023-04-21T02:07:28;99208.91;;;11.03;100.00
26087;BME280;13851;43.434;28.338;2023-04-21T02:09:56;99275.38;;;11.12;100.00
26087;BME280;13851;43.434;28.338;2023-04-21T02:12:21;99275.88;;;11.57;100.00
26087;BME280;13851;43.434;28.338;2023-04-21T02:14:47;99245.41;;;11.45;100.00
26087;BME280;13851;43.434;28.338;2023-04-21T02:17:13;99274.13;;;11.49;100.00
26087;BME280;13851;43.434;28.338;2023-04-21T02:19:39;99015.06;;;10.08;100.00
26087;BME280;13851;43.434;28.338;2023-04-21T02:22:05;99304.75;;;11.53;100.00
26087;BME280;13851;43.434;28.338;2023-04-21T02:24:33;99260.69;;;11.61;100.00
26087;BME280;13851;43.434;28.338;2023-04-21T02:26:59;99034.66;;;10.11;100.00
26087;BME280;13851;43.434;28.338;2023-04-21T02:29:24;99255.78;;;11.84;100.00
26087;BME280;13851;43.434;28.338;2023-04-21T02:31:50;99240.94;;;11.79;100.00
26087;BME280;13851;43.434;28.338;2023-04-21T02:34:15;99212.59;;;11.65;100.00
26087;BME280;13851;43.434;28.338;2023-04-21T02:36:41;98844.59;;;9.38;100.00
26087;BME280;13851;43.434;28.338;2023-04-21T02:39:06;99264.03;;;11.97;100.00
26087;BME280;13851;43.434;28.338;2023-04-21T02:41:32;99254.34;;;12.02;100.00
26087;BME280;13851;43.434;28.338;2023-04-21T02:43:58;99221.50;;;11.67;100.00
26087;BME280;13851;43.434;28.338;2023-04-21T02:46:23;99131.41;;;11.23;100.00
26087;BME280;13851;43.434;28.338;2023-04-21T02:48:49;99303.84;;;11.80;100.00
26087;BME280;13851;43.434;28.338;2023-04-21T02:51:15;99180.81;;;11.36;100.00
26087;BME280;13851;43.434;28.338;2023-04-21T02:53:41;99193.53;;;11.43;100.00
26087;BME280;13851;43.434;28.338;2023-04-21T02:56:07;98876.84;;;9.49;100.00
26087;BME280;13851;43.434;28.338;2023-04-21T02:58:36;99259.56;;;11.42;100.00
26087;BME280;13851;43.434;28.338;2023-04-21T03:01:02;99202.81;;;11.42;100.00
26087;BME280;13851;43.434;28.338;2023-04-21T03:03:29;99215.94;;;11.54;100.00
26087;BME280;13851;43.434;28.338;2023-04-21T03:05:59;99257.59;;;11.77;100.00
26087;BME280;13851;43.434;28.338;2023-04-21T03:08:25;99265.81;;;11.77;100.00
26087;BME280;13851;43.434;28.338;2023-04-21T03:10:50;99215.47;;;11.43;100.00
26087;BME280;13851;43.434;28.338;2023-04-21T03:13:16;99251.84;;;11.65;100.00
26087;BME280;13851;43.434;28.338;2023-04-21T03:15:42;99100.38;;;10.74;100.00
26087;BME280;13851;43.434;28.338;2023-04-21T03:18:07;99270.91;;;11.80;100.00
26087;BME280;13851;43.434;28.338;2023-04-21T03:20:33;99265.81;;;11.70;100.00
26087;BME280;13851;43.434;28.338;2023-04-21T03:22:58;98959.59;;;9.93;100.00
26087;BME280;13851;43.434;28.338;2023-04-21T03:25:24;99215.47;;;11.43;100.00
26087;BME280;13851;43.434;28.338;2023-04-21T03:27:52;99186.06;;;11.31;100.00
26087;BME280;13851;43.434;28.338;2023-04-21T03:30:18;99220.72;;;11.38;100.00
26087;BME280;13851;43.434;28.338;2023-04-21T03:32:44;99277.94;;;11.89;100.00
26087;BME280;13851;43.434;28.338;2023-04-21T03:35:09;98962.16;;;9.94;100.00
26087;BME280;13851;43.434;28.338;2023-04-21T03:37:35;99286.59;;;11.86;100.00
26087;BME280;13851;43.434;28.338;2023-04-21T03:40:00;99297.16;;;11.83;100.00
26087;BME280;13851;43.434;28.338;2023-04-21T03:42:26;99259.47;;;11.70;100.00
26087;BME280;13851;43.434;28.338;2023-04-21T03:44:51;99287.97;;;11.76;100.00
26087;BME280;13851;43.434;28.338;2023-04-21T03:47:17;99299.56;;;11.71;100.00
26087;BME280;13851;43.434;28.338;2023-04-21T03:49:42;98849.16;;;9.03;100.00
26087;BME280;13851;43.434;28.338;2023-04-21T03:52:08;99214.50;;;11.23;100.00
26087;BME280;13851;43.434;28.338;2023-04-21T03:54:36;99250.53;;;11.55;100.00
26087;BME280;13851;43.434;28.338;2023-04-21T03:57:04;99129.75;;;10.80;100.00
26087;BME280;13851;43.434;28.338;2023-04-21T03:59:29;99281.56;;;11.55;100.00
26087;BME280;13851;43.434;28.338;2023-04-21T04:01:55;99308.00;;;12.11;100.00
26087;BME280;13851;43.434;28.338;2023-04-21T04:04:20;99188.16;;;11.77;100.00
26087;BME280;13851;43.434;28.338;2023-04-21T04:06:46;99298.66;;;12.60;100.00
26087;BME280;13851;43.434;28.338;2023-04-21T04:09:11;99222.09;;;12.30;100.00
26087;BME280;13851;43.434;28.338;2023-04-21T04:11:37;99317.69;;;12.94;100.00
26087;BME280;13851;43.434;28.338;2023-04-21T04:14:02;99023.44;;;11.17;100.00
26087;BME280;13851;43.434;28.338;2023-04-21T04:16:28;99326.38;;;13.11;100.00
26087;BME280;13851;43.434;28.338;2023-04-21T04:18:54;99310.91;;;13.10;100.00
26087;BME280;13851;43.434;28.338;2023-04-21T04:21:19;99316.41;;;13.10;100.00
26087;BME280;13851;43.434;28.338;2023-04-21T04:23:45;99326.81;;;13.48;100.00
26087;BME280;13851;43.434;28.338;2023-04-21T04:26:10;98969.94;;;11.48;100.00
26087;BME280;13851;43.434;28.338;2023-04-21T04:28:36;99376.06;;;13.76;100.00
26087;BME280;13851;43.434;28.338;2023-04-21T04:31:02;99331.22;;;13.56;100.00
26087;BME280;13851;43.434;28.338;2023-04-21T04:33:28;99031.53;;;11.58;100.00
26087;BME280;13851;43.434;28.338;2023-04-21T04:35:53;99277.53;;;13.00;100.00
26087;BME280;13851;43.434;28.338;2023-04-21T04:38:19;99298.66;;;13.13;100.00
26087;BME280;13851;43.434;28.338;2023-04-21T04:40:44;99374.44;;;13.22;100.00
26087;BME280;13851;43.434;28.338;2023-04-21T04:43:17;99331.25;;;13.16;100.00
26087;BME280;13851;43.434;28.338;2023-04-21T04:45:43;99320.66;;;12.86;100.00
26087;BME280;13851;43.434;28.338;2023-04-21T04:48:09;99309.66;;;12.99;100.00
26087;BME280;13851;43.434;28.338;2023-04-21T04:50:35;99327.03;;;13.00;100.00
26087;BME280;13851;43.434;28.338;2023-04-21T04:53:00;99306.91;;;12.86;100.00
26087;BME280;13851;43.434;28.338;2023-04-21T04:55:26;99333.34;;;12.81;100.00
26087;BME280;13851;43.434;28.338;2023-04-21T04:57:51;99011.28;;;10.85;100.00
26087;BME280;13851;43.434;28.338;2023-04-21T05:00:17;99382.38;;;12.77;100.00
26087;BME280;13851;43.434;28.338;2023-04-21T05:02:43;99121.41;;;11.56;100.00
26087;BME280;13851;43.434;28.338;2023-04-21T05:05:08;99331.00;;;12.78;100.00
26087;BME280;13851;43.434;28.338;2023-04-21T05:07:34;99334.59;;;12.78;100.00
26087;BME280;13851;43.434;28.338;2023-04-21T05:10:00;98952.97;;;10.43;100.00
26087;BME280;13851;43.434;28.338;2023-04-21T05:12:25;99276.38;;;12.28;100.00
26087;BME280;13851;43.434;28.338;2023-04-21T05:14:51;99336.28;;;12.59;100.00
26087;BME280;13851;43.434;28.338;2023-04-21T05:17:16;98988.31;;;10.38;100.00
26087;BME280;13851;43.434;28.338;2023-04-21T05:19:42;99258.97;;;12.01;100.00
26087;BME280;13851;43.434;28.338;2023-04-21T05:22:07;98993.78;;;10.31;100.00
26087;BME280;13851;43.434;28.338;2023-04-21T05:24:33;99265.31;;;12.02;100.00
26087;BME280;13851;43.434;28.338;2023-04-21T05:26:59;99260.50;;;12.04;100.00
26087;BME280;13851;43.434;28.338;2023-04-21T05:29:25;99325.53;;;12.03;100.00
26087;BME280;13851;43.434;28.338;2023-04-21T05:31:51;99343.19;;;12.42;100.00
26087;BME280;13851;43.434;28.338;2023-04-21T05:34:16;98942.94;;;9.87;100.00
26087;BME280;13851;43.434;28.338;2023-04-21T05:36:42;99337.75;;;12.01;100.00
26087;BME280;13851;43.434;28.338;2023-04-21T05:39:08;98939.72;;;9.77;100.00
26087;BME280;13851;43.434;28.338;2023-04-21T05:41:33;99231.53;;;11.47;100.00
26087;BME280;13851;43.434;28.338;2023-04-21T05:43:59;99344.56;;;12.11;100.00
26087;BME280;13851;43.434;28.338;2023-04-21T05:46:24;99393.34;;;12.09;100.00
26087;BME280;13851;43.434;28.338;2023-04-21T05:48:50;99350.41;;;11.95;100.00
26087;BME280;13851;43.434;28.338;2023-04-21T05:51:15;99345.31;;;11.92;100.00
26087;BME280;13851;43.434;28.338;2023-04-21T05:53:42;98966.34;;;9.41;100.00
26087;BME280;13851;43.434;28.338;2023-04-21T05:56:08;99336.13;;;11.43;100.00
26087;BME280;13851;43.434;28.338;2023-04-21T05:58:37;99314.06;;;11.24;100.00
26087;BME280;13851;43.434;28.338;2023-04-21T06:01:03;99306.44;;;11.19;100.00
26087;BME280;13851;43.434;28.338;2023-04-21T06:03:30;99331.13;;;11.26;100.00
26087;BME280;13851;43.434;28.338;2023-04-21T06:05:56;99271.88;;;10.68;100.00
26087;BME280;13851;43.434;28.338;2023-04-21T06:08:22;99335.47;;;11.13;100.00
26087;BME280;13851;43.434;28.338;2023-04-21T06:10:48;99331.66;;;11.08;100.00
26087;BME280;13851;43.434;28.338;2023-04-21T06:13:13;99390.19;;;11.00;100.00
26087;BME280;13851;43.434;28.338;2023-04-21T06:15:39;99315.16;;;10.80;100.00
26087;BME280;13851;43.434;28.338;2023-04-21T06:18:04;99326.84;;;10.88;100.00
26087;BME280;13851;43.434;28.338;2023-04-21T06:20:30;99335.66;;;10.84;100.00
26087;BME280;13851;43.434;28.338;2023-04-21T06:22:55;99335.34;;;10.72;100.00
26087;BME280;13851;43.434;28.338;2023-04-21T06:25:21;99315.59;;;10.55;100.00
26087;BME280;13851;43.434;28.338;2023-04-21T06:27:46;99317.31;;;10.63;100.00
26087;BME280;13851;43.434;28.338;2023-04-21T06:30:13;99318.13;;;10.57;100.00
26087;BME280;13851;43.434;28.338;2023-04-21T06:32:39;99084.09;;;9.03;100.00
26087;BME280;13851;43.434;28.338;2023-04-21T06:35:05;99329.59;;;10.46;100.00
26087;BME280;13851;43.434;28.338;2023-04-21T06:37:31;99331.75;;;10.50;100.00
26087;BME280;13851;43.434;28.338;2023-04-21T06:39:56;99331.59;;;10.58;100.00
26087;BME280;13851;43.434;28.338;2023-04-21T06:42:22;99336.56;;;10.70;100.00
26087;BME280;13851;43.434;28.338;2023-04-21T06:44:47;99031.38;;;8.88;100.00
26087;BME280;13851;43.434;28.338;2023-04-21T06:47:13;99068.81;;;9.08;100.00
26087;BME280;13851;43.434;28.338;2023-04-21T06:49:40;99335.91;;;10.67;100.00
26087;BME280;13851;43.434;28.338;2023-04-21T06:52:06;99309.69;;;10.58;100.00
26087;BME280;13851;43.434;28.338;2023-04-21T06:54:31;99317.84;;;10.73;100.00
26087;BME280;13851;43.434;28.338;2023-04-21T06:56:57;99304.31;;;10.65;100.00
26087;BME280;13851;43.434;28.338;2023-04-21T06:59:23;99402.41;;;10.98;100.00
26087;BME280;13851;43.434;28.338;2023-04-21T07:01:49;99242.09;;;10.37;100.00
26087;BME280;13851;43.434;28.338;2023-04-21T07:04:17;99310.16;;;10.62;100.00
26087;BME280;13851;43.434;28.338;2023-04-21T07:06:43;99403.13;;;10.49;100.00
26087;BME280;13851;43.434;28.338;2023-04-21T07:09:08;99329.84;;;10.51;100.00
26087;BME280;13851;43.434;28.338;2023-04-21T07:11:34;99339.09;;;10.13;100.00
26087;BME280;13851;43.434;28.338;2023-04-21T07:13:59;99330.75;;;10.58;100.00
26087;BME280;13851;43.434;28.338;2023-04-21T07:16:27;99367.41;;;10.57;100.00
26087;BME280;13851;43.434;28.338;2023-04-21T07:18:53;99304.44;;;10.57;100.00
26087;BME280;13851;43.434;28.338;2023-04-21T07:21:18;99337.75;;;10.82;100.00
26087;BME280;13851;43.434;28.338;2023-04-21T07:23:44;99234.09;;;10.36;100.00
26087;BME280;13851;43.434;28.338;2023-04-21T07:26:09;99324.91;;;11.10;100.00
26087;BME280;13851;43.434;28.338;2023-04-21T07:28:37;99327.06;;;11.15;100.00
26087;BME280;13851;43.434;28.338;2023-04-21T07:31:04;99347.25;;;11.07;100.00
26087;BME280;13851;43.434;28.338;2023-04-21T07:33:30;99389.41;;;11.06;100.00
26087;BME280;13851;43.434;28.338;2023-04-21T07:35:55;99325.88;;;11.24;100.00
26087;BME280;13851;43.434;28.338;2023-04-21T07:38:21;99330.44;;;11.45;100.00
26087;BME280;13851;43.434;28.338;2023-04-21T07:40:46;99327.81;;;11.65;100.00
26087;BME280;13851;43.434;28.338;2023-04-21T07:43:12;99302.72;;;11.68;100.00
26087;BME280;13851;43.434;28.338;2023-04-21T07:45:37;99335.97;;;11.86;100.00
26087;BME280;13851;43.434;28.338;2023-04-21T07:48:03;99174.66;;;10.86;100.00
26087;BME280;13851;43.434;28.338;2023-04-21T07:50:32;98946.16;;;9.63;100.00
26087;BME280;13851;43.434;28.338;2023-04-21T07:52:59;99322.09;;;11.94;100.00
26087;BME280;13851;43.434;28.338;2023-04-21T07:55:26;99348.38;;;12.17;100.00
26087;BME280;13851;43.434;28.338;2023-04-21T07:57:51;99345.59;;;12.04;100.00
26087;BME280;13851;43.434;28.338;2023-04-21T08:00:17;99275.91;;;11.63;100.00
26087;BME280;13851;43.434;28.338;2023-04-21T08:02:43;99345.81;;;12.09;100.00
26087;BME280;13851;43.434;28.338;2023-04-21T08:05:08;99348.13;;;12.05;100.00
26087;BME280;13851;43.434;28.338;2023-04-21T08:07:34;99359.53;;;12.09;100.00
26087;BME280;13851;43.434;28.338;2023-04-21T08:10:00;99363.19;;;12.22;100.00
26087;BME280;13851;43.434;28.338;2023-04-21T08:12:26;99350.09;;;12.25;100.00
26087;BME280;13851;43.434;28.338;2023-04-21T08:14:52;99359.44;;;12.37;100.00
26087;BME280;13851;43.434;28.338;2023-04-21T08:17:18;99351.22;;;12.43;100.00
26087;BME280;13851;43.434;28.338;2023-04-21T08:19:43;99343.84;;;12.57;100.00
26087;BME280;13851;43.434;28.338;2023-04-21T08:22:10;99357.25;;;13.00;100.00
26087;BME280;13851;43.434;28.338;2023-04-21T08:24:36;99276.47;;;12.81;100.00
26087;BME280;13851;43.434;28.338;2023-04-21T08:27:01;99034.25;;;11.38;100.00
26087;BME280;13851;43.434;28.338;2023-04-21T08:29:27;99357.91;;;13.35;100.00
26087;BME280;13851;43.434;28.338;2023-04-21T08:31:53;99173.94;;;12.47;100.00
26087;BME280;13851;43.434;28.338;2023-04-21T08:34:18;99066.41;;;12.11;100.00
26087;BME280;13851;43.434;28.338;2023-04-21T08:36:44;99284.25;;;13.57;100.00
26087;BME280;13851;43.434;28.338;2023-04-21T08:39:12;99266.44;;;13.60;100.00
26087;BME280;13851;43.434;28.338;2023-04-21T08:41:38;99036.63;;;12.34;100.00
26087;BME280;13851;43.434;28.338;2023-04-21T08:44:06;99057.66;;;12.80;100.00
26087;BME280;13851;43.434;28.338;2023-04-21T08:46:32;99343.13;;;14.66;100.00
26087;BME280;13851;43.434;28.338;2023-04-21T08:48:58;99117.47;;;13.49;100.00
26087;BME280;13851;43.434;28.338;2023-04-21T08:51:26;99286.06;;;14.28;100.00
26087;BME280;13851;43.434;28.338;2023-04-21T08:53:54;99372.31;;;14.73;100.00
26087;BME280;13851;43.434;28.338;2023-04-21T08:56:19;99165.16;;;13.37;100.00
26087;BME280;13851;43.434;28.338;2023-04-21T08:58:45;99368.84;;;14.46;100.00
26087;BME280;13851;43.434;28.338;2023-04-21T09:01:10;99107.13;;;12.80;100.00
26087;BME280;13851;43.434;28.338;2023-04-21T09:03:36;98997.59;;;12.06;100.00
26087;BME280;13851;43.434;28.338;2023-04-21T09:06:03;99381.44;;;14.22;100.00
26087;BME280;13851;43.434;28.338;2023-04-21T09:08:33;99126.38;;;12.67;100.00
26087;BME280;13851;43.434;28.338;2023-04-21T09:10:59;99280.16;;;13.66;100.00
26087;BME280;13851;43.434;28.338;2023-04-21T09:13:34;99367.97;;;13.94;100.00
26087;BME280;13851;43.434;28.338;2023-04-21T09:16:01;99357.91;;;14.26;100.00
26087;BME280;13851;43.434;28.338;2023-04-21T09:18:29;99012.31;;;12.31;100.00
26087;BME280;13851;43.434;28.338;2023-04-21T09:23:45;99360.75;;;14.58;100.00
26087;BME280;13851;43.434;28.338;2023-04-21T09:26:11;99396.47;;;14.78;100.00
26087;BME280;13851;43.434;28.338;2023-04-21T09:28:45;99353.31;;;14.59;100.00
26087;BME280;13851;43.434;28.338;2023-04-21T09:31:18;99319.47;;;14.45;100.00
26087;BME280;13851;43.434;28.338;2023-04-21T09:33:55;99360.44;;;14.79;100.00
26087;BME280;13851;43.434;28.338;2023-04-21T09:36:23;99257.41;;;13.97;100.00
26087;BME280;13851;43.434;28.338;2023-04-21T09:39:02;99368.22;;;14.51;100.00
26087;BME280;13851;43.434;28.338;2023-04-21T09:41:30;99376.84;;;14.61;100.00
26087;BME280;13851;43.434;28.338;2023-04-21T09:43:56;99357.19;;;14.51;100.00
26087;BME280;13851;43.434;28.338;2023-04-21T09:46:26;99299.94;;;14.08;100.00
26087;BME280;13851;43.434;28.338;2023-04-21T09:48:54;99370.84;;;14.26;100.00
26087;BME280;13851;43.434;28.338;2023-04-21T09:51:23;99308.97;;;13.77;100.00
26087;BME280;13851;43.434;28.338;2023-04-21T09:53:52;99364.81;;;13.97;100.00
26087;BME280;13851;43.434;28.338;2023-04-21T09:56:20;99373.28;;;13.89;100.00
26087;BME280;13851;43.434;28.338;2023-04-21T09:58:53;99408.25;;;13.89;100.00
26087;BME280;13851;43.434;28.338;2023-04-21T10:01:19;99284.91;;;13.39;100.00
26087;BME280;13851;43.434;28.338;2023-04-21T10:03:49;99120.50;;;12.50;100.00
26087;BME280;13851;43.434;28.338;2023-04-21T10:06:15;99149.63;;;12.58;100.00
26087;BME280;13851;43.434;28.338;2023-04-21T10:08:41;99357.38;;;13.91;100.00
26087;BME280;13851;43.434;28.338;2023-04-21T10:11:07;99314.84;;;13.81;100.00
26087;BME280;13851;43.434;28.338;2023-04-21T10:13:34;99091.94;;;12.58;100.00
26087;BME280;13851;43.434;28.338;2023-04-21T10:18:28;99352.75;;;13.85;100.00
26087;BME280;13851;43.434;28.338;2023-04-21T10:21:01;99315.56;;;13.63;100.00
26087;BME280;13851;43.434;28.338;2023-04-21T10:23:44;99357.41;;;13.85;100.00
26087;BME280;13851;43.434;28.338;2023-04-21T10:26:20;99324.44;;;13.65;100.00
26087;BME280;13851;43.434;28.338;2023-04-21T10:31:30;99355.53;;;13.78;100.00
26087;BME280;13851;43.434;28.338;2023-04-21T10:34:17;99351.47;;;13.94;100.00
26087;BME280;13851;43.434;28.338;2023-04-21T10:39:23;99320.38;;;14.32;100.00
26087;BME280;13851;43.434;28.338;2023-04-21T10:41:49;99368.59;;;14.61;100.00
26087;BME280;13851;43.434;28.338;2023-04-21T10:44:15;99355.78;;;14.73;100.00
26087;BME280;13851;43.434;28.338;2023-04-21T10:46:46;99337.16;;;15.00;100.00
26087;BME280;13851;43.434;28.338;2023-04-21T10:49:28;99309.13;;;15.03;100.00
26087;BME280;13851;43.434;28.338;2023-04-21T10:57:12;99335.63;;;14.79;100.00
26087;BME280;13851;43.434;28.338;2023-04-21T10:59:39;99312.50;;;13.97;100.00
26087;BME280;13851;43.434;28.338;2023-04-21T11:02:06;99308.41;;;14.07;100.00
26087;BME280;13851;43.434;28.338;2023-04-21T11:04:32;99400.56;;;14.11;100.00
26087;BME280;13851;43.434;28.338;2023-04-21T11:07:08;99297.56;;;13.53;100.00
26087;BME280;13851;43.434;28.338;2023-04-21T11:09:38;99369.94;;;13.61;100.00
26087;BME280;13851;43.434;28.338;2023-04-21T11:12:06;99333.38;;;13.34;100.00
26087;BME280;13851;43.434;28.338;2023-04-21T11:14:34;99365.97;;;13.43;100.00
26087;BME280;13851;43.434;28.338;2023-04-21T11:17:01;99287.25;;;12.96;100.00
26087;BME280;13851;43.434;28.338;2023-04-21T11:19:26;99269.50;;;12.85;100.00
26087;BME280;13851;43.434;28.338;2023-04-21T11:21:52;99366.38;;;13.67;100.00
26087;BME280;13851;43.434;28.338;2023-04-21T11:24:21;99369.75;;;13.62;100.00
26087;BME280;13851;43.434;28.338;2023-04-21T11:26:47;99405.50;;;13.82;100.00
26087;BME280;13851;43.434;28.338;2023-04-21T11:29:12;99047.63;;;12.08;100.00
26087;BME280;13851;43.434;28.338;2023-04-21T11:31:41;99330.50;;;13.93;100.00
26087;BME280;13851;43.434;28.338;2023-04-21T11:34:08;99273.28;;;13.37;100.00
26087;BME280;13851;43.434;28.338;2023-04-21T11:36:39;99364.91;;;14.29;100.00
26087;BME280;13851;43.434;28.338;2023-04-21T11:39:06;99363.22;;;14.28;100.00
26087;BME280;13851;43.434;28.338;2023-04-21T11:41:39;99365.78;;;14.23;100.00
26087;BME280;13851;43.434;28.338;2023-04-21T11:44:06;99367.97;;;14.01;100.00
26087;BME280;13851;43.434;28.338;2023-04-21T11:46:32;99362.50;;;13.81;100.00
26087;BME280;13851;43.434;28.338;2023-04-21T11:51:23;99321.31;;;13.35;100.00
26087;BME280;13851;43.434;28.338;2023-04-21T11:53:49;99362.13;;;13.58;100.00
26087;BME280;13851;43.434;28.338;2023-04-21T11:56:19;99357.25;;;13.73;100.00
26087;BME280;13851;43.434;28.338;2023-04-21T11:58:48;99332.50;;;13.53;100.00
26087;BME280;13851;43.434;28.338;2023-04-21T12:01:20;99357.28;;;14.24;100.00
26087;BME280;13851;43.434;28.338;2023-04-21T12:03:53;99297.94;;;14.28;100.00
26087;BME280;13851;43.434;28.338;2023-04-21T12:06:23;99364.03;;;15.12;100.00
26087;BME280;13851;43.434;28.338;2023-04-21T12:08:59;99351.59;;;15.27;100.00
26087;BME280;13851;43.434;28.338;2023-04-21T12:11:29;99343.41;;;15.39;100.00
26087;BME280;13851;43.434;28.338;2023-04-21T12:13:56;99284.78;;;14.94;100.00
26087;BME280;13851;43.434;28.338;2023-04-21T12:16:24;99356.59;;;15.37;100.00
26087;BME280;13851;43.434;28.338;2023-04-21T12:18:51;99197.97;;;14.78;100.00
26087;BME280;13851;43.434;28.338;2023-04-21T12:21:17;99375.88;;;15.69;100.00
26087;BME280;13851;43.434;28.338;2023-04-21T12:23:43;99340.88;;;15.81;100.00
26087;BME280;13851;43.434;28.338;2023-04-21T12:26:09;99373.13;;;16.05;100.00
26087;BME280;13851;43.434;28.338;2023-04-21T12:28:36;99308.06;;;15.73;100.00
26087;BME280;13851;43.434;28.338;2023-04-21T12:31:02;99378.44;;;16.07;100.00
26087;BME280;13851;43.434;28.338;2023-04-21T12:33:27;99326.22;;;15.62;100.00
26087;BME280;13851;43.434;28.338;2023-04-21T12:35:53;99175.56;;;14.68;100.00
26087;BME280;13851;43.434;28.338;2023-04-21T12:38:18;99044.78;;;13.64;100.00
26087;BME280;13851;43.434;28.338;2023-04-21T12:40:44;99096.47;;;13.87;100.00
26087;BME280;13851;43.434;28.338;2023-04-21T12:43:10;99428.19;;;15.57;100.00
26087;BME280;13851;43.434;28.338;2023-04-21T12:45:35;99435.72;;;15.43;100.00
26087;BME280;13851;43.434;28.338;2023-04-21T12:48:01;99373.88;;;15.26;100.00
26087;BME280;13851;43.434;28.338;2023-04-21T12:50:28;99283.44;;;14.78;100.00
26087;BME280;13851;43.434;28.338;2023-04-21T12:52:54;99355.34;;;15.33;100.00
26087;BME280;13851;43.434;28.338;2023-04-21T12:55:22;99364.03;;;15.62;100.00